sensor_id;sensor_type;location;lat;lon;timestamp;pressure;altitude;pressure_sealevel;temperature;humidity
1726;BME280;41776;48.260;8.928;2023-11-19T00:01:32;52278.03;;;-145.69;63.54
1726;BME280;41776;48.260;8.928;2023-11-19T00:03:58;52301.81;;;-145.69;63.36
1726;BME280;41776;48.260;8.928;2023-11-19T00:06:25;52293.88;;;-145.69;63.61
1726;BME280;41776;48.260;8.928;2023-11-19T00:08:52;52268.13;;;-145.69;63.42
1726;BME280;41776;48.260;8.928;2023-11-19T00:11:18;52303.78;;;-145.69;63.33
1726;BME280;41776;48.260;8.928;2023-11-19T00:13:46;52293.88;;;-145.69;63.76
1726;BME280;41776;48.260;8.928;2023-11-19T00:16:12;52305.75;;;-145.69;63.54
1726;BME280;41776;48.260;8.928;2023-11-19T00:18:39;52317.66;;;-145.69;63.10
1726;BME280;41776;48.260;8.928;2023-11-19T00:21:06;52270.13;;;-145.69;63.61
1726;BME280;41776;48.260;8.928;2023-11-19T00:23:33;52276.06;;;-145.69;63.91
1726;BME280;41776;48.260;8.928;2023-11-19T00:26:01;52276.06;;;-145.69;64.04
1726;BME280;41776;48.260;8.928;2023-11-19T00:28:27;52305.75;;;-145.69;64.40
1726;BME280;41776;48.260;8.928;2023-11-19T00:30:55;52250.31;;;-145.69;63.87
1726;BME280;41776;48.260;8.928;2023-11-19T00:33:24;52272.09;;;-145.69;65.12
1726;BME280;41776;48.260;8.928;2023-11-19T00:35:50;52285.97;;;-145.69;65.38
1726;BME280;41776;48.260;8.928;2023-11-19T00:38:17;52317.66;;;-145.69;65.66
1726;BME280;41776;48.260;8.928;2023-11-19T00:40:43;52266.16;;;-145.69;65.29
1726;BME280;41776;48.260;8.928;2023-11-19T00:43:10;52282.00;;;-145.69;65.36
1726;BME280;41776;48.260;8.928;2023-11-19T00:45:36;52309.72;;;-145.69;65.08
1726;BME280;41776;48.260;8.928;2023-11-19T00:48:05;52252.28;;;-145.69;65.48
1726;BME280;41776;48.260;8.928;2023-11-19T00:50:32;52303.78;;;-145.69;65.88
1726;BME280;41776;48.260;8.928;2023-11-19T00:52:58;52283.97;;;-145.69;66.68
1726;BME280;41776;48.260;8.928;2023-11-19T00:55:25;52274.06;;;-145.69;66.63
1726;BME280;41776;48.260;8.928;2023-11-19T00:57:51;52321.59;;;-145.69;65.70
1726;BME280;41776;48.260;8.928;2023-11-19T01:00:18;52331.50;;;-145.69;66.18
1726;BME280;41776;48.260;8.928;2023-11-19T01:02:45;52301.81;;;-145.69;65.98
1726;BME280;41776;48.260;8.928;2023-11-19T01:05:13;52278.03;;;-145.69;65.96
1726;BME280;41776;48.260;8.928;2023-11-19T01:07:40;52319.63;;;-145.69;65.71
1726;BME280;41776;48.260;8.928;2023-11-19T01:10:07;52297.84;;;-145.69;65.71
1726;BME280;41776;48.260;8.928;2023-11-19T01:12:33;52274.06;;;-145.69;66.18
1726;BME280;41776;48.260;8.928;2023-11-19T01:15:00;52325.56;;;-145.69;66.31
1726;BME280;41776;48.260;8.928;2023-11-19T01:17:27;52282.00;;;-145.69;66.54
1726;BME280;41776;48.260;8.928;2023-11-19T01:19:53;52301.81;;;-145.69;66.60
1726;BME280;41776;48.260;8.928;2023-11-19T01:22:21;52287.94;;;-145.69;66.30
1726;BME280;41776;48.260;8.928;2023-11-19T01:24:48;52297.84;;;-145.69;66.56
1726;BME280;41776;48.260;8.928;2023-11-19T01:27:14;52329.53;;;-145.69;67.24
1726;BME280;41776;48.260;8.928;2023-11-19T01:29:41;52268.13;;;-145.69;67.24
1726;BME280;41776;48.260;8.928;2023-11-19T01:32:08;52280.00;;;-145.69;66.41
1726;BME280;41776;48.260;8.928;2023-11-19T01:34:34;52297.84;;;-145.69;66.38
1726;BME280;41776;48.260;8.928;2023-11-19T01:37:01;52313.69;;;-145.69;67.10
1726;BME280;41776;48.260;8.928;2023-11-19T01:39:29;52285.97;;;-145.69;67.30
1726;BME280;41776;48.260;8.928;2023-11-19T01:41:55;52293.88;;;-145.69;67.60
1726;BME280;41776;48.260;8.928;2023-11-19T01:44:20;52309.72;;;-145.69;67.80
1726;BME280;41776;48.260;8.928;2023-11-19T01:46:47;52293.88;;;-145.69;67.72
1726;BME280;41776;48.260;8.928;2023-11-19T01:49:15;52291.91;;;-145.69;67.80
1726;BME280;41776;48.260;8.928;2023-11-19T01:51:42;52270.13;;;-145.69;68.56
1726;BME280;41776;48.260;8.928;2023-11-19T01:54:09;52293.88;;;-145.69;68.27
1726;BME280;41776;48.260;8.928;2023-11-19T01:56:38;52285.97;;;-145.69;68.52
1726;BME280;41776;48.260;8.928;2023-11-19T01:59:07;52297.84;;;-145.69;68.69
1726;BME280;41776;48.260;8.928;2023-11-19T02:01:35;52262.19;;;-145.69;69.44
1726;BME280;41776;48.260;8.928;2023-11-19T02:04:05;52289.91;;;-145.69;69.48
1726;BME280;41776;48.260;8.928;2023-11-19T02:06:33;52303.78;;;-145.69;68.77
1726;BME280;41776;48.260;8.928;2023-11-19T02:09:01;52313.69;;;-145.69;68.72
1726;BME280;41776;48.260;8.928;2023-11-19T02:11:33;52297.84;;;-145.69;68.40
1726;BME280;41776;48.260;8.928;2023-11-19T02:14:01;52264.16;;;-145.69;68.62
1726;BME280;41776;48.260;8.928;2023-11-19T02:16:28;52262.19;;;-145.69;68.42
1726;BME280;41776;48.260;8.928;2023-11-19T02:18:55;52270.13;;;-145.69;68.93
1726;BME280;41776;48.260;8.928;2023-11-19T02:21:21;52278.03;;;-145.69;68.49
1726;BME280;41776;48.260;8.928;2023-11-19T02:23:48;52282.00;;;-145.69;68.29
1726;BME280;41776;48.260;8.928;2023-11-19T02:26:18;52285.97;;;-145.69;68.16
1726;BME280;41776;48.260;8.928;2023-11-19T02:28:49;52238.44;;;-145.69;68.59
1726;BME280;41776;48.260;8.928;2023-11-19T02:31:16;52250.31;;;-145.69;68.22
1726;BME280;41776;48.260;8.928;2023-11-19T02:33:42;52250.31;;;-145.69;68.51
1726;BME280;41776;48.260;8.928;2023-11-19T02:36:09;52309.72;;;-145.69;69.09
1726;BME280;41776;48.260;8.928;2023-11-19T02:38:36;52289.91;;;-145.69;68.87
1726;BME280;41776;48.260;8.928;2023-11-19T02:41:04;52274.06;;;-145.69;68.45
1726;BME280;41776;48.260;8.928;2023-11-19T02:43:31;52260.22;;;-145.69;68.12
1726;BME280;41776;48.260;8.928;2023-11-19T02:46:00;52262.19;;;-145.69;68.30
1726;BME280;41776;48.260;8.928;2023-11-19T02:48:26;52283.97;;;-145.69;68.65
1726;BME280;41776;48.260;8.928;2023-11-19T02:50:53;52264.16;;;-145.69;68.82
1726;BME280;41776;48.260;8.928;2023-11-19T02:53:19;52297.84;;;-145.69;68.29
1726;BME280;41776;48.260;8.928;2023-11-19T02:55:47;52270.13;;;-145.69;68.92
1726;BME280;41776;48.260;8.928;2023-11-19T02:58:15;52289.91;;;-145.69;68.56
1726;BME280;41776;48.260;8.928;2023-11-19T03:00:48;52349.31;;;-145.69;68.92
1726;BME280;41776;48.260;8.928;2023-11-19T03:03:23;52264.16;;;-145.69;68.65
1726;BME280;41776;48.260;8.928;2023-11-19T03:05:54;52315.66;;;-145.69;68.32
1726;BME280;41776;48.260;8.928;2023-11-19T03:08:20;52283.97;;;-145.69;68.64
1726;BME280;41776;48.260;8.928;2023-11-19T03:10:47;52301.81;;;-145.69;67.91
1726;BME280;41776;48.260;8.928;2023-11-19T03:13:15;52260.22;;;-145.69;66.43
1726;BME280;41776;48.260;8.928;2023-11-19T03:15:42;52278.03;;;-145.69;67.94
1726;BME280;41776;48.260;8.928;2023-11-19T03:18:09;52315.66;;;-145.69;67.79
1726;BME280;41776;48.260;8.928;2023-11-19T03:20:36;52307.75;;;-145.69;68.80
1726;BME280;41776;48.260;8.928;2023-11-19T03:23:03;52262.19;;;-145.69;68.03
1726;BME280;41776;48.260;8.928;2023-11-19T03:25:31;52285.97;;;-145.69;68.00
1726;BME280;41776;48.260;8.928;2023-11-19T03:27:59;52289.91;;;-145.69;68.22
1726;BME280;41776;48.260;8.928;2023-11-19T03:30:27;52272.09;;;-145.69;68.44
1726;BME280;41776;48.260;8.928;2023-11-19T03:32:54;52276.06;;;-145.69;68.67
1726;BME280;41776;48.260;8.928;2023-11-19T03:35:21;52268.13;;;-145.69;68.37
1726;BME280;41776;48.260;8.928;2023-11-19T03:37:49;52283.97;;;-145.69;68.22
1726;BME280;41776;48.260;8.928;2023-11-19T03:40:16;52276.06;;;-145.69;68.52
1726;BME280;41776;48.260;8.928;2023-11-19T03:42:44;52258.22;;;-145.69;68.25
1726;BME280;41776;48.260;8.928;2023-11-19T03:45:10;52250.31;;;-145.69;66.66
1726;BME280;41776;48.260;8.928;2023-11-19T03:47:37;52276.06;;;-145.69;65.94
1726;BME280;41776;48.260;8.928;2023-11-19T03:50:05;52291.91;;;-145.69;67.10
1726;BME280;41776;48.260;8.928;2023-11-19T03:52:32;52280.00;;;-145.69;66.79
1726;BME280;41776;48.260;8.928;2023-11-19T03:55:00;52266.16;;;-145.69;67.18
1726;BME280;41776;48.260;8.928;2023-11-19T03:57:28;52248.34;;;-145.69;67.38
1726;BME280;41776;48.260;8.928;2023-11-19T03:59:54;52289.91;;;-145.69;67.28
1726;BME280;41776;48.260;8.928;2023-11-19T04:02:21;52240.41;;;-145.69;66.36
1726;BME280;41776;48.260;8.928;2023-11-19T04:04:47;52244.38;;;-145.69;65.97
1726;BME280;41776;48.260;8.928;2023-11-19T04:07:14;52276.06;;;-145.69;65.06
1726;BME280;41776;48.260;8.928;2023-11-19T04:09:40;52256.25;;;-145.69;66.90
1726;BME280;41776;48.260;8.928;2023-11-19T04:12:08;52268.13;;;-145.69;65.83
1726;BME280;41776;48.260;8.928;2023-11-19T04:14:36;52270.13;;;-145.69;65.59
1726;BME280;41776;48.260;8.928;2023-11-19T04:17:02;52280.00;;;-145.69;65.98
1726;BME280;41776;48.260;8.928;2023-11-19T04:19:29;52268.13;;;-145.69;67.39
1726;BME280;41776;48.260;8.928;2023-11-19T04:21:57;52260.22;;;-145.69;67.46
1726;BME280;41776;48.260;8.928;2023-11-19T04:24:24;52297.84;;;-145.69;67.92
1726;BME280;41776;48.260;8.928;2023-11-19T04:26:50;52262.19;;;-145.69;66.93
1726;BME280;41776;48.260;8.928;2023-11-19T04:29:19;52246.34;;;-145.69;66.78
1726;BME280;41776;48.260;8.928;2023-11-19T04:31:45;52250.31;;;-145.69;66.83
1726;BME280;41776;48.260;8.928;2023-11-19T04:34:12;52256.25;;;-145.69;67.38
1726;BME280;41776;48.260;8.928;2023-11-19T04:36:39;52274.06;;;-145.69;67.05
1726;BME280;41776;48.260;8.928;2023-11-19T04:39:05;52274.06;;;-145.69;66.62
1726;BME280;41776;48.260;8.928;2023-11-19T04:41:34;52272.09;;;-145.69;66.56
1726;BME280;41776;48.260;8.928;2023-11-19T04:44:01;52268.13;;;-145.69;66.84
1726;BME280;41776;48.260;8.928;2023-11-19T04:46:29;52282.00;;;-145.69;67.01
1726;BME280;41776;48.260;8.928;2023-11-19T04:48:55;52278.03;;;-145.69;66.78
1726;BME280;41776;48.260;8.928;2023-11-19T04:51:22;52258.22;;;-145.69;67.22
1726;BME280;41776;48.260;8.928;2023-11-19T04:53:48;52270.13;;;-145.69;66.58
1726;BME280;41776;48.260;8.928;2023-11-19T04:56:15;52250.31;;;-145.69;65.08
1726;BME280;41776;48.260;8.928;2023-11-19T04:58:44;52282.00;;;-145.69;65.33
1726;BME280;41776;48.260;8.928;2023-11-19T05:01:13;52246.34;;;-145.69;65.40
1726;BME280;41776;48.260;8.928;2023-11-19T05:03:42;52250.31;;;-145.69;65.82
1726;BME280;41776;48.260;8.928;2023-11-19T05:06:08;52232.50;;;-145.69;65.93
1726;BME280;41776;48.260;8.928;2023-11-19T05:08:35;52270.13;;;-145.69;66.56
1726;BME280;41776;48.260;8.928;2023-11-19T05:11:02;52244.38;;;-145.69;66.94
1726;BME280;41776;48.260;8.928;2023-11-19T05:13:29;52262.19;;;-145.69;66.48
1726;BME280;41776;48.260;8.928;2023-11-19T05:15:56;52266.16;;;-145.69;66.48
1726;BME280;41776;48.260;8.928;2023-11-19T05:18:23;52293.88;;;-145.69;66.48
1726;BME280;41776;48.260;8.928;2023-11-19T05:20:50;52291.91;;;-145.69;65.73
1726;BME280;41776;48.260;8.928;2023-11-19T05:23:17;52262.19;;;-145.69;64.89
1726;BME280;41776;48.260;8.928;2023-11-19T05:25:43;52238.44;;;-145.69;65.36
1726;BME280;41776;48.260;8.928;2023-11-19T05:28:13;52278.03;;;-145.69;64.43
1726;BME280;41776;48.260;8.928;2023-11-19T05:30:40;52285.97;;;-145.69;65.31
1726;BME280;41776;48.260;8.928;2023-11-19T05:33:07;52283.97;;;-145.69;65.24
1726;BME280;41776;48.260;8.928;2023-11-19T05:35:34;52278.03;;;-145.69;65.48
1726;BME280;41776;48.260;8.928;2023-11-19T05:38:02;52276.06;;;-145.69;64.74
1726;BME280;41776;48.260;8.928;2023-11-19T05:40:28;52278.03;;;-145.69;65.38
1726;BME280;41776;48.260;8.928;2023-11-19T05:42:55;52270.13;;;-145.69;65.71
1726;BME280;41776;48.260;8.928;2023-11-19T05:45:21;52283.97;;;-145.69;65.79
1726;BME280;41776;48.260;8.928;2023-11-19T05:47:48;52280.00;;;-145.69;65.78
1726;BME280;41776;48.260;8.928;2023-11-19T05:50:14;52276.06;;;-145.69;66.28
1726;BME280;41776;48.260;8.928;2023-11-19T05:52:41;52272.09;;;-145.69;65.37
1726;BME280;41776;48.260;8.928;2023-11-19T05:55:09;52266.16;;;-145.69;65.79
1726;BME280;41776;48.260;8.928;2023-11-19T05:57:36;52254.28;;;-145.69;65.92
1726;BME280;41776;48.260;8.928;2023-11-19T06:00:03;52268.13;;;-145.69;66.31
1726;BME280;41776;48.260;8.928;2023-11-19T06:02:32;52278.03;;;-145.69;66.11
1726;BME280;41776;48.260;8.928;2023-11-19T06:04:59;52287.94;;;-145.69;66.22
1726;BME280;41776;48.260;8.928;2023-11-19T06:07:25;52272.09;;;-145.69;66.51
1726;BME280;41776;48.260;8.928;2023-11-19T06:09:51;52258.22;;;-145.69;67.19
1726;BME280;41776;48.260;8.928;2023-11-19T06:12:19;52248.34;;;-145.69;67.34
1726;BME280;41776;48.260;8.928;2023-11-19T06:14:46;52287.94;;;-145.69;67.52
1726;BME280;41776;48.260;8.928;2023-11-19T06:17:13;52289.91;;;-145.69;66.82
1726;BME280;41776;48.260;8.928;2023-11-19T06:19:39;52258.22;;;-145.69;67.11
1726;BME280;41776;48.260;8.928;2023-11-19T06:22:05;52272.09;;;-145.69;67.18
1726;BME280;41776;48.260;8.928;2023-11-19T06:24:32;52244.38;;;-145.69;67.22
1726;BME280;41776;48.260;8.928;2023-11-19T06:26:58;52258.22;;;-145.69;66.95
1726;BME280;41776;48.260;8.928;2023-11-19T06:29:26;52293.88;;;-145.69;67.13
1726;BME280;41776;48.260;8.928;2023-11-19T06:31:53;52258.22;;;-145.69;67.25
1726;BME280;41776;48.260;8.928;2023-11-19T06:34:19;52266.16;;;-145.69;67.14
1726;BME280;41776;48.260;8.928;2023-11-19T06:36:46;52250.31;;;-145.69;67.39
1726;BME280;41776;48.260;8.928;2023-11-19T06:39:13;52280.00;;;-145.69;66.68
1726;BME280;41776;48.260;8.928;2023-11-19T06:41:44;52258.22;;;-145.69;66.52
1726;BME280;41776;48.260;8.928;2023-11-19T06:44:11;52293.88;;;-145.69;66.80
1726;BME280;41776;48.260;8.928;2023-11-19T06:46:39;52274.06;;;-145.69;66.60
1726;BME280;41776;48.260;8.928;2023-11-19T06:49:06;52276.06;;;-145.69;66.72
1726;BME280;41776;48.260;8.928;2023-11-19T06:51:33;52283.97;;;-145.69;66.82
1726;BME280;41776;48.260;8.928;2023-11-19T06:54:00;52270.13;;;-145.69;66.58
1726;BME280;41776;48.260;8.928;2023-11-19T06:56:26;52256.25;;;-145.69;66.50
1726;BME280;41776;48.260;8.928;2023-11-19T06:58:53;52218.63;;;-145.69;65.98
1726;BME280;41776;48.260;8.928;2023-11-19T07:01:20;52270.13;;;-145.69;65.83
1726;BME280;41776;48.260;8.928;2023-11-19T07:03:48;52280.00;;;-145.69;66.02
1726;BME280;41776;48.260;8.928;2023-11-19T07:06:15;52285.97;;;-145.69;65.25
1726;BME280;41776;48.260;8.928;2023-11-19T07:08:41;52254.28;;;-145.69;65.21
1726;BME280;41776;48.260;8.928;2023-11-19T07:11:09;52276.06;;;-145.69;65.02
1726;BME280;41776;48.260;8.928;2023-11-19T07:13:37;52278.03;;;-145.69;65.31
1726;BME280;41776;48.260;8.928;2023-11-19T07:16:04;52248.34;;;-145.69;65.78
1726;BME280;41776;48.260;8.928;2023-11-19T07:18:31;52268.13;;;-145.69;65.68
1726;BME280;41776;48.260;8.928;2023-11-19T07:20:59;52252.28;;;-145.69;65.29
1726;BME280;41776;48.260;8.928;2023-11-19T07:23:26;52262.19;;;-145.69;65.41
1726;BME280;41776;48.260;8.928;2023-11-19T07:25:52;52252.28;;;-145.69;65.86
1726;BME280;41776;48.260;8.928;2023-11-19T07:28:18;52240.41;;;-145.69;65.64
1726;BME280;41776;48.260;8.928;2023-11-19T07:30:45;52226.53;;;-145.69;65.63
1726;BME280;41776;48.260;8.928;2023-11-19T07:33:11;52266.16;;;-145.69;65.43
1726;BME280;41776;48.260;8.928;2023-11-19T07:35:39;52268.13;;;-145.69;65.25
1726;BME280;41776;48.260;8.928;2023-11-19T07:38:07;52214.66;;;-145.69;64.94
1726;BME280;41776;48.260;8.928;2023-11-19T07:40:34;52248.34;;;-145.69;64.54
1726;BME280;41776;48.260;8.928;2023-11-19T07:43:00;52238.44;;;-145.69;64.56
1726;BME280;41776;48.260;8.928;2023-11-19T07:45:27;52234.47;;;-145.69;64.66
1726;BME280;41776;48.260;8.928;2023-11-19T07:47:53;52260.22;;;-145.69;64.29
1726;BME280;41776;48.260;8.928;2023-11-19T07:50:20;52262.19;;;-145.69;64.34
1726;BME280;41776;48.260;8.928;2023-11-19T07:52:47;52250.31;;;-145.69;64.46
1726;BME280;41776;48.260;8.928;2023-11-19T07:55:15;52242.38;;;-145.69;63.94
1726;BME280;41776;48.260;8.928;2023-11-19T07:57:41;52252.28;;;-145.69;63.51
1726;BME280;41776;48.260;8.928;2023-11-19T08:00:08;52230.50;;;-145.69;63.56
1726;BME280;41776;48.260;8.928;2023-11-19T08:02:37;52293.88;;;-145.69;63.36
1726;BME280;41776;48.260;8.928;2023-11-19T08:05:04;52258.22;;;-145.69;62.84
1726;BME280;41776;48.260;8.928;2023-11-19T08:07:31;52248.34;;;-145.69;63.05
1726;BME280;41776;48.260;8.928;2023-11-19T08:09:57;52226.53;;;-145.69;63.14
1726;BME280;41776;48.260;8.928;2023-11-19T08:12:26;52234.47;;;-145.69;63.07
1726;BME280;41776;48.260;8.928;2023-11-19T08:14:53;52206.75;;;-145.69;63.08
1726;BME280;41776;48.260;8.928;2023-11-19T08:17:19;52262.19;;;-145.69;62.56
1726;BME280;41776;48.260;8.928;2023-11-19T08:19:48;52208.72;;;-145.69;62.40
1726;BME280;41776;48.260;8.928;2023-11-19T08:22:14;52264.16;;;-145.69;62.03
1726;BME280;41776;48.260;8.928;2023-11-19T08:24:43;52246.34;;;-145.69;61.34
1726;BME280;41776;48.260;8.928;2023-11-19T08:27:09;52230.50;;;-145.69;61.35
1726;BME280;41776;48.260;8.928;2023-11-19T08:29:37;52224.56;;;-145.69;60.84
1726;BME280;41776;48.260;8.928;2023-11-19T08:32:04;52230.50;;;-145.69;61.17
1726;BME280;41776;48.260;8.928;2023-11-19T08:34:31;52236.44;;;-145.69;60.89
1726;BME280;41776;48.260;8.928;2023-11-19T08:36:58;52256.25;;;-145.69;61.15
1726;BME280;41776;48.260;8.928;2023-11-19T08:39:25;52234.47;;;-145.69;60.93
1726;BME280;41776;48.260;8.928;2023-11-19T08:41:52;52236.44;;;-145.69;59.83
1726;BME280;41776;48.260;8.928;2023-11-19T08:44:18;52238.44;;;-145.69;60.36
1726;BME280;41776;48.260;8.928;2023-11-19T08:46:49;52210.72;;;-145.69;58.93
1726;BME280;41776;48.260;8.928;2023-11-19T08:49:16;52157.25;;;-145.69;59.53
1726;BME280;41776;48.260;8.928;2023-11-19T08:51:42;52252.28;;;-145.69;60.25
1726;BME280;41776;48.260;8.928;2023-11-19T08:54:09;52218.63;;;-145.69;60.54
1726;BME280;41776;48.260;8.928;2023-11-19T08:56:38;52246.34;;;-145.69;60.15
1726;BME280;41776;48.260;8.928;2023-11-19T08:59:04;52218.63;;;-145.69;60.31
1726;BME280;41776;48.260;8.928;2023-11-19T09:01:31;52222.59;;;-145.69;60.43
1726;BME280;41776;48.260;8.928;2023-11-19T09:04:00;52218.63;;;-145.69;59.66
1726;BME280;41776;48.260;8.928;2023-11-19T09:06:26;52226.53;;;-145.69;60.10
1726;BME280;41776;48.260;8.928;2023-11-19T09:08:53;52266.16;;;-145.69;59.96
1726;BME280;41776;48.260;8.928;2023-11-19T09:11:23;52246.34;;;-145.69;59.65
1726;BME280;41776;48.260;8.928;2023-11-19T09:13:50;52242.38;;;-145.69;59.29
1726;BME280;41776;48.260;8.928;2023-11-19T09:16:16;52234.47;;;-145.69;59.07
1726;BME280;41776;48.260;8.928;2023-11-19T09:18:43;52218.63;;;-145.69;58.82
1726;BME280;41776;48.260;8.928;2023-11-19T09:21:11;52220.59;;;-145.69;58.71
1726;BME280;41776;48.260;8.928;2023-11-19T09:23:38;52230.50;;;-145.69;58.58
1726;BME280;41776;48.260;8.928;2023-11-19T09:26:06;52198.81;;;-145.69;58.27
1726;BME280;41776;48.260;8.928;2023-11-19T09:28:35;52234.47;;;-145.69;57.46
1726;BME280;41776;48.260;8.928;2023-11-19T09:31:02;52200.81;;;-145.69;57.65
1726;BME280;41776;48.260;8.928;2023-11-19T09:33:30;52246.34;;;-145.69;57.60
1726;BME280;41776;48.260;8.928;2023-11-19T09:35:56;52206.75;;;-145.69;56.83
1726;BME280;41776;48.260;8.928;2023-11-19T09:38:24;52210.72;;;-145.69;56.34
1726;BME280;41776;48.260;8.928;2023-11-19T09:40:51;52204.75;;;-145.69;55.84
1726;BME280;41776;48.260;8.928;2023-11-19T09:43:17;52196.84;;;-145.69;56.26
1726;BME280;41776;48.260;8.928;2023-11-19T09:45:48;52175.06;;;-145.69;55.02
1726;BME280;41776;48.260;8.928;2023-11-19T09:48:16;52214.66;;;-145.69;55.37
1726;BME280;41776;48.260;8.928;2023-11-19T09:50:44;52190.91;;;-145.69;54.97
1726;BME280;41776;48.260;8.928;2023-11-19T09:53:10;52200.81;;;-145.69;55.20
1726;BME280;41776;48.260;8.928;2023-11-19T09:55:38;52190.91;;;-145.69;55.30
1726;BME280;41776;48.260;8.928;2023-11-19T09:58:05;52216.66;;;-145.69;54.82
1726;BME280;41776;48.260;8.928;2023-11-19T10:00:33;52179.03;;;-145.69;54.87
1726;BME280;41776;48.260;8.928;2023-11-19T10:03:00;52194.88;;;-145.69;54.58
1726;BME280;41776;48.260;8.928;2023-11-19T10:05:27;52204.75;;;-145.69;54.17
1726;BME280;41776;48.260;8.928;2023-11-19T10:07:53;52161.19;;;-145.69;54.18
1726;BME280;41776;48.260;8.928;2023-11-19T10:10:20;52192.88;;;-145.69;53.67
1726;BME280;41776;48.260;8.928;2023-11-19T10:12:50;52206.75;;;-145.69;52.66
1726;BME280;41776;48.260;8.928;2023-11-19T10:15:20;52157.25;;;-145.69;52.64
1726;BME280;41776;48.260;8.928;2023-11-19T10:17:47;52198.81;;;-145.69;52.72
1726;BME280;41776;48.260;8.928;2023-11-19T10:20:13;52198.81;;;-145.69;52.77
1726;BME280;41776;48.260;8.928;2023-11-19T10:22:40;52173.09;;;-145.69;51.81
1726;BME280;41776;48.260;8.928;2023-11-19T10:25:22;52196.84;;;-145.69;52.01
1726;BME280;41776;48.260;8.928;2023-11-19T10:27:50;52167.13;;;-145.69;52.04
1726;BME280;41776;48.260;8.928;2023-11-19T10:30:18;52184.97;;;-145.69;51.80
1726;BME280;41776;48.260;8.928;2023-11-19T10:32:44;52167.13;;;-145.69;50.96
1726;BME280;41776;48.260;8.928;2023-11-19T10:35:11;52194.88;;;-145.69;51.93
1726;BME280;41776;48.260;8.928;2023-11-19T10:37:38;52153.28;;;-145.69;51.48
1726;BME280;41776;48.260;8.928;2023-11-19T10:40:07;52198.81;;;-145.69;50.87
1726;BME280;41776;48.260;8.928;2023-11-19T10:42:35;52196.84;;;-145.69;50.64
1726;BME280;41776;48.260;8.928;2023-11-19T10:45:04;52145.34;;;-145.69;50.21
1726;BME280;41776;48.260;8.928;2023-11-19T10:47:31;52175.06;;;-145.69;50.44
1726;BME280;41776;48.260;8.928;2023-11-19T10:49:59;52210.72;;;-145.69;50.97
1726;BME280;41776;48.260;8.928;2023-11-19T10:52:27;52194.88;;;-145.69;50.85
1726;BME280;41776;48.260;8.928;2023-11-19T10:54:57;52167.13;;;-145.69;50.49
1726;BME280;41776;48.260;8.928;2023-11-19T10:57:29;52157.25;;;-145.69;50.70
1726;BME280;41776;48.260;8.928;2023-11-19T11:00:04;52159.22;;;-145.69;51.38
1726;BME280;41776;48.260;8.928;2023-11-19T11:02:40;52192.88;;;-145.69;51.15
1726;BME280;41776;48.260;8.928;2023-11-19T11:05:07;52186.94;;;-145.69;50.82
1726;BME280;41776;48.260;8.928;2023-11-19T11:07:34;52179.03;;;-145.69;50.87
1726;BME280;41776;48.260;8.928;2023-11-19T11:10:01;52159.22;;;-145.69;50.67
1726;BME280;41776;48.260;8.928;2023-11-19T11:12:30;52155.25;;;-145.69;50.73
1726;BME280;41776;48.260;8.928;2023-11-19T11:14:59;52165.16;;;-145.69;50.92
1726;BME280;41776;48.260;8.928;2023-11-19T11:17:30;52177.03;;;-145.69;51.85
1726;BME280;41776;48.260;8.928;2023-11-19T11:19:58;52175.06;;;-145.69;52.14
1726;BME280;41776;48.260;8.928;2023-11-19T11:22:25;52190.91;;;-145.69;53.14
1726;BME280;41776;48.260;8.928;2023-11-19T11:25:06;52186.94;;;-145.69;52.47
1726;BME280;41776;48.260;8.928;2023-11-19T11:28:12;52171.09;;;-145.69;51.47
1726;BME280;41776;48.260;8.928;2023-11-19T11:30:55;52179.03;;;-145.69;51.59
1726;BME280;41776;48.260;8.928;2023-11-19T11:33:41;52137.44;;;-145.69;51.54
1726;BME280;41776;48.260;8.928;2023-11-19T11:36:19;52182.97;;;-145.69;50.85
1726;BME280;41776;48.260;8.928;2023-11-19T11:38:48;52175.06;;;-145.69;52.51
1726;BME280;41776;48.260;8.928;2023-11-19T11:41:16;52173.09;;;-145.69;52.55
1726;BME280;41776;48.260;8.928;2023-11-19T11:43:44;52190.91;;;-145.69;52.78
1726;BME280;41776;48.260;8.928;2023-11-19T11:49:12;52151.28;;;-145.69;52.19
1726;BME280;41776;48.260;8.928;2023-11-19T11:52:00;52175.06;;;-145.69;51.61
1726;BME280;41776;48.260;8.928;2023-11-19T11:54:28;52147.34;;;-145.69;52.14
1726;BME280;41776;48.260;8.928;2023-11-19T11:57:13;52196.84;;;-145.69;50.89
1726;BME280;41776;48.260;8.928;2023-11-19T11:59:50;52167.13;;;-145.69;50.52
1726;BME280;41776;48.260;8.928;2023-11-19T12:02:18;52210.72;;;-145.69;50.88
1726;BME280;41776;48.260;8.928;2023-11-19T12:04:51;52188.91;;;-145.69;50.74
1726;BME280;41776;48.260;8.928;2023-11-19T12:07:19;52135.47;;;-145.69;50.26
1726;BME280;41776;48.260;8.928;2023-11-19T12:09:51;52155.25;;;-145.69;49.09
1726;BME280;41776;48.260;8.928;2023-11-19T12:12:21;52143.38;;;-145.69;48.65
1726;BME280;41776;48.260;8.928;2023-11-19T12:15:03;52119.63;;;-145.69;47.55
1726;BME280;41776;48.260;8.928;2023-11-19T12:17:41;52135.47;;;-145.69;47.35
1726;BME280;41776;48.260;8.928;2023-11-19T12:20:11;52163.19;;;-145.69;48.04
1726;BME280;41776;48.260;8.928;2023-11-19T12:22:38;52155.25;;;-145.69;48.25
1726;BME280;41776;48.260;8.928;2023-11-19T12:25:06;52143.38;;;-145.69;47.12
1726;BME280;41776;48.260;8.928;2023-11-19T12:27:34;52159.22;;;-145.69;48.20
1726;BME280;41776;48.260;8.928;2023-11-19T12:30:00;52127.53;;;-145.69;47.53
1726;BME280;41776;48.260;8.928;2023-11-19T12:32:37;52171.09;;;-145.69;48.67
1726;BME280;41776;48.260;8.928;2023-11-19T12:35:04;52169.13;;;-145.69;48.98
1726;BME280;41776;48.260;8.928;2023-11-19T12:37:32;52123.56;;;-145.69;49.40
1726;BME280;41776;48.260;8.928;2023-11-19T12:40:00;52159.22;;;-145.69;49.06
1726;BME280;41776;48.260;8.928;2023-11-19T12:42:36;52161.19;;;-145.69;48.22
1726;BME280;41776;48.260;8.928;2023-11-19T12:45:04;52159.22;;;-145.69;48.25
1726;BME280;41776;48.260;8.928;2023-11-19T12:47:31;52165.16;;;-145.69;47.98
1726;BME280;41776;48.260;8.928;2023-11-19T12:49:58;52161.19;;;-145.69;48.24
1726;BME280;41776;48.260;8.928;2023-11-19T12:52:24;52173.09;;;-145.69;47.61
1726;BME280;41776;48.260;8.928;2023-11-19T12:54:53;52188.91;;;-145.69;47.75
1726;BME280;41776;48.260;8.928;2023-11-19T12:57:20;52186.94;;;-145.69;47.91